Thunder radar more information blitzortung!


Radar de pluja more information rain snow radar


Visita la nostra xarxa de llocs de meteo:

Template documentation
and downloads

And another site



Wind From: 11-12-2017 11:00 Until: 14:59 warning for: Wind Level: Yellow info button

Pagina Historial Weather Underground text

Diari Resum Agost 31, 2017 Unitats:  Tant    Imperial   Mètric
« Previous Dia
SegĂźent Dia »
Diari Setmana Mensual Anual Personalitzada
  Maxima: Minima: Media:
Temperatura: 73 °F /  22.8 °C 64.8 °F /  18.2 °C 69.4 °F /  20.8 °C
Punt de rosada: 65.3 °F /  18.5 °C 59.5 °F /  15.3 °C 62.8 °F /  17.1 °C
Humitat: 88 % 73 % 80 %
Wind Speed: 12.7 mph /  20.4 km/h - 3.8 mph /  6.1 km/h
RĂ fegues de vent: 12.7 mph /  20.4 km/h - -
Vent:- - ESE
Pression baro: 30.1 in /  1018.8 hPa 29.9 in /  1012.8 hPa -
Precipitacions: 0.21 in /  5.3 mm    
Historical Graphs
 
 
Dades de taula per Agost 31, 2017
Temps Temperatura Punt de rosada Pression baro Vent Wind Speed RĂ fegues de vent Humitat Rainfall Rate (Hourly)
00:00 69.3 °F /  20.7 °C 62.8 °F /  17.1 °C 29.9 in /  1013.8 hPa SSW 1 mph /  1.6 km/h 2 mph /  3.2 km/h 80 % 0 in /  0.0 mm
00:03 70.3 °F /  21.3 °C 62.4 °F /  16.9 °C 29.9 in /  1012.8 hPa SW 1.2 mph /  1.9 km/h   76 % 0 in /  0.0 mm
00:08 70.3 °F /  21.3 °C 62.4 °F /  16.9 °C 29.9 in /  1012.8 hPa Calm     76 % 0 in /  0.0 mm
00:10 68.9 °F /  20.5 °C 62.4 °F /  16.9 °C 29.9 in /  1013.8 hPa Calm     80 % 0 in /  0.0 mm
00:20 68.9 °F /  20.5 °C 62.4 °F /  16.9 °C 29.9 in /  1012.8 hPa Calm     80 % 0 in /  0.0 mm
00:30 69.1 °F /  20.6 °C 62.6 °F /  17.0 °C 29.9 in /  1013.8 hPa Calm   1 mph /  1.6 km/h 80 % 0 in /  0.0 mm
00:40 69.1 °F /  20.6 °C 62.6 °F /  17.0 °C 29.9 in /  1013.8 hPa Calm   2 mph /  3.2 km/h 80 % 0 in /  0.0 mm
00:50 69.1 °F /  20.6 °C 62.6 °F /  17.0 °C 29.9 in /  1013.8 hPa Calm   1 mph /  1.6 km/h 80 % 0 in /  0.0 mm
01:00 69.1 °F /  20.6 °C 62.6 °F /  17.0 °C 29.9 in /  1013.8 hPa Calm     80 % 0 in /  0.0 mm
01:10 69.1 °F /  20.6 °C 63 °F /  17.2 °C 29.9 in /  1013.8 hPa Calm     81 % 0 in /  0.0 mm
01:20 68.9 °F /  20.5 °C 62.8 °F /  17.1 °C 29.9 in /  1013.8 hPa WSW 1 mph /  1.6 km/h 2 mph /  3.2 km/h 81 % 0 in /  0.0 mm
01:30 68.9 °F /  20.5 °C 62.8 °F /  17.1 °C 29.9 in /  1012.8 hPa West 1 mph /  1.6 km/h 1 mph /  1.6 km/h 81 % 0 in /  0.0 mm
01:40 68.7 °F /  20.4 °C 62.8 °F /  17.1 °C 29.9 in /  1012.8 hPa Calm   1 mph /  1.6 km/h 81 % 0 in /  0.0 mm
01:50 68.5 °F /  20.3 °C 62.4 °F /  16.9 °C 29.9 in /  1012.8 hPa Calm   1 mph /  1.6 km/h 81 % 0 in /  0.0 mm
02:00 68.4 °F /  20.2 °C 62.6 °F /  17.0 °C 29.9 in /  1013.8 hPa WSW 1 mph /  1.6 km/h 2 mph /  3.2 km/h 82 % 0 in /  0.0 mm
02:10 67.8 °F /  19.9 °C 62.4 °F /  16.9 °C 29.9 in /  1013.8 hPa SW 1 mph /  1.6 km/h 2 mph /  3.2 km/h 83 % 0 in /  0.0 mm
02:20 67.8 °F /  19.9 °C 62.8 °F /  17.1 °C 29.9 in /  1013.8 hPa Calm   1 mph /  1.6 km/h 84 % 0 in /  0.0 mm
02:30 68 °F /  20.0 °C 62.2 °F /  16.8 °C 29.9 in /  1013.8 hPa SW 2 mph /  3.2 km/h 3 mph /  4.8 km/h 82 % 0 in /  0.0 mm
02:40 67.8 °F /  19.9 °C 62.8 °F /  17.1 °C 29.9 in /  1013.8 hPa Calm   3 mph /  4.8 km/h 84 % 0 in /  0.0 mm
02:50 68 °F /  20.0 °C 63.3 °F /  17.4 °C 29.9 in /  1013.8 hPa WNW 1 mph /  1.6 km/h 1 mph /  1.6 km/h 85 % 0 in /  0.0 mm
03:00 68 °F /  20.0 °C 63.3 °F /  17.4 °C 29.9 in /  1013.8 hPa Calm   1 mph /  1.6 km/h 85 % 0 in /  0.0 mm
03:10 67.8 °F /  19.9 °C 63.1 °F /  17.3 °C 29.9 in /  1013.8 hPa NNE 3 mph /  4.8 km/h 3 mph /  4.8 km/h 85 % 0 in /  0.0 mm
03:20 67.8 °F /  19.9 °C 63.1 °F /  17.3 °C 29.9 in /  1013.8 hPa NE 2 mph /  3.2 km/h 4 mph /  6.4 km/h 85 % 0 in /  0.0 mm
03:30 67.8 °F /  19.9 °C 63.1 °F /  17.3 °C 29.9 in /  1013.8 hPa NE 1 mph /  1.6 km/h 3 mph /  4.8 km/h 85 % 0 in /  0.0 mm
03:40 67.8 °F /  19.9 °C 63.1 °F /  17.3 °C 29.9 in /  1013.8 hPa NNE 3 mph /  4.8 km/h 4 mph /  6.4 km/h 85 % 0 in /  0.0 mm
08:41 67.8 °F /  19.9 °C 63.9 °F /  17.7 °C 30 in /  1014.8 hPa WSW 4.6 mph /  7.4 km/h 4.6 mph /  7.4 km/h 87 % 0 in /  0.0 mm
08:42 67.8 °F /  19.9 °C 63.9 °F /  17.7 °C 30 in /  1014.8 hPa WSW 2.3 mph /  3.7 km/h 2.3 mph /  3.7 km/h 87 % 0 in /  0.0 mm
08:45 68 °F /  20.0 °C 64 °F /  17.8 °C 30 in /  1014.8 hPa WSW 1.2 mph /  1.9 km/h   87 % 0 in /  0.0 mm
08:50 68 °F /  20.0 °C 64.2 °F /  17.9 °C 30 in /  1014.8 hPa Calm     88 % 0 in /  0.0 mm
08:55 68.2 °F /  20.1 °C 64.6 °F /  18.1 °C 30 in /  1014.8 hPa ENE 3.5 mph /  5.6 km/h 3.5 mph /  5.6 km/h 88 % 0 in /  0.0 mm
09:00 68 °F /  20.0 °C 64.2 °F /  17.9 °C 30 in /  1014.8 hPa East 2.3 mph /  3.7 km/h 2.3 mph /  3.7 km/h 88 % 0 in /  0.0 mm
09:05 68 °F /  20.0 °C 64.2 °F /  17.9 °C 30 in /  1014.8 hPa ENE 2.6 mph /  4.2 km/h 2.6 mph /  4.2 km/h 88 % 0 in /  0.0 mm
09:06 68 °F /  20.0 °C 64 °F /  17.8 °C 30 in /  1014.8 hPa ENE 2.3 mph /  3.7 km/h 2.3 mph /  3.7 km/h 87 % 0 in /  0.0 mm
09:11 68.4 °F /  20.2 °C 64.2 °F /  17.9 °C 30 in /  1014.8 hPa East 1.2 mph /  1.9 km/h 1.4 mph /  2.3 km/h 87 % 0 in /  0.0 mm
09:16 68.4 °F /  20.2 °C 64.2 °F /  17.9 °C 30 in /  1014.8 hPa ENE 3.5 mph /  5.6 km/h 3.5 mph /  5.6 km/h 87 % 0 in /  0.0 mm
09:21 68.2 °F /  20.1 °C 63.9 °F /  17.7 °C 30 in /  1014.8 hPa NNE 4.6 mph /  7.4 km/h 4.6 mph /  7.4 km/h 86 % 0 in /  0.0 mm
09:26 68.4 °F /  20.2 °C 64 °F /  17.8 °C 30 in /  1014.8 hPa NE 2.3 mph /  3.7 km/h 2.3 mph /  3.7 km/h 86 % 0 in /  0.0 mm
09:31 68.7 °F /  20.4 °C 64.8 °F /  18.2 °C 30 in /  1014.8 hPa North 2.3 mph /  3.7 km/h 2.3 mph /  3.7 km/h 87 % 0 in /  0.0 mm
09:36 68.7 °F /  20.4 °C 64.8 °F /  18.2 °C 30 in /  1014.8 hPa WNW 2.3 mph /  3.7 km/h 2.3 mph /  3.7 km/h 87 % 0 in /  0.0 mm
09:41 68.7 °F /  20.4 °C 64.8 °F /  18.2 °C 30 in /  1015.8 hPa WNW 1.2 mph /  1.9 km/h   87 % 0 in /  0.0 mm
09:46 68.7 °F /  20.4 °C 64.8 °F /  18.2 °C 30 in /  1015.8 hPa NE 2 mph /  3.2 km/h 2 mph /  3.2 km/h 87 % 0 in /  0.0 mm
09:51 68.7 °F /  20.4 °C 64.4 °F /  18.0 °C 30 in /  1015.8 hPa Calm     86 % 0 in /  0.0 mm
09:56 68.9 °F /  20.5 °C 64.6 °F /  18.1 °C 30 in /  1015.8 hPa Calm     86 % 0 in /  0.0 mm
10:01 68.7 °F /  20.4 °C 64.4 °F /  18.0 °C 30 in /  1015.8 hPa NE 1.2 mph /  1.9 km/h 1.2 mph /  1.9 km/h 86 % 0 in /  0.0 mm
10:06 68.9 °F /  20.5 °C 64.6 °F /  18.1 °C 30 in /  1015.8 hPa Calm     86 % 0 in /  0.0 mm
10:11 69.1 °F /  20.6 °C 64.9 °F /  18.3 °C 30 in /  1015.8 hPa WSW 2.3 mph /  3.7 km/h 2.3 mph /  3.7 km/h 87 % 0 in /  0.0 mm
10:16 69.1 °F /  20.6 °C 64.9 °F /  18.3 °C 30 in /  1015.8 hPa SW 2.3 mph /  3.7 km/h 2.3 mph /  3.7 km/h 87 % 0 in /  0.0 mm
10:21 68.9 °F /  20.5 °C 64.6 °F /  18.1 °C 30 in /  1015.8 hPa SW 2.3 mph /  3.7 km/h 2.3 mph /  3.7 km/h 86 % 0 in /  0.0 mm
10:26 68.9 °F /  20.5 °C 64.9 °F /  18.3 °C 30 in /  1016.8 hPa SSW 2.3 mph /  3.7 km/h 2.3 mph /  3.7 km/h 87 % 0 in /  0.0 mm
10:31 69.1 °F /  20.6 °C 64.9 °F /  18.3 °C 30 in /  1016.8 hPa SSW 1.2 mph /  1.9 km/h   87 % 0 in /  0.0 mm
10:36 69.1 °F /  20.6 °C 64.9 °F /  18.3 °C 30 in /  1016.8 hPa West 1.2 mph /  1.9 km/h 1.2 mph /  1.9 km/h 87 % 0 in /  0.0 mm
10:41 69.1 °F /  20.6 °C 64.9 °F /  18.3 °C 30 in /  1016.8 hPa WSW 0.9 mph /  1.4 km/h   87 % 0 in /  0.0 mm
10:46 69.1 °F /  20.6 °C 64.8 °F /  18.2 °C 30 in /  1016.8 hPa Calm     86 % 0 in /  0.0 mm
10:51 69.3 °F /  20.7 °C 64.9 °F /  18.3 °C 30 in /  1016.8 hPa Calm     86 % 0 in /  0.0 mm
10:56 69.4 °F /  20.8 °C 65.1 °F /  18.4 °C 30 in /  1015.8 hPa NE 2.3 mph /  3.7 km/h 2.3 mph /  3.7 km/h 86 % 0 in /  0.0 mm
11:01 69.6 °F /  20.9 °C 65.1 °F /  18.4 °C 30 in /  1015.8 hPa NNE 3.3 mph /  5.3 km/h 3.3 mph /  5.3 km/h 86 % 0 in /  0.0 mm
11:06 69.8 °F /  21.0 °C 65.1 °F /  18.4 °C 30 in /  1015.8 hPa NNE 2.6 mph /  4.2 km/h   85 % 0 in /  0.0 mm
11:11 69.4 °F /  20.8 °C 64.4 °F /  18.0 °C 30 in /  1015.8 hPa ENE 1.2 mph /  1.9 km/h   84 % 0 in /  0.0 mm
11:16 69.4 °F /  20.8 °C 64 °F /  17.8 °C 30 in /  1015.8 hPa NNE 2.4 mph /  3.9 km/h 2.4 mph /  3.9 km/h 83 % 0 in /  0.0 mm
11:21 69.4 °F /  20.8 °C 63.7 °F /  17.6 °C 30 in /  1015.8 hPa Calm     82 % 0 in /  0.0 mm
11:26 69.8 °F /  21.0 °C 64 °F /  17.8 °C 30 in /  1015.8 hPa Calm     82 % 0 in /  0.0 mm
11:31 69.8 °F /  21.0 °C 64 °F /  17.8 °C 30 in /  1015.8 hPa WNW 1.2 mph /  1.9 km/h   82 % 0 in /  0.0 mm
11:36 70 °F /  21.1 °C 64.2 °F /  17.9 °C 30 in /  1015.8 hPa WNW 1.4 mph /  2.3 km/h   82 % 0 in /  0.0 mm
11:41 70.2 °F /  21.2 °C 64.4 °F /  18.0 °C 30 in /  1015.8 hPa West 2.3 mph /  3.7 km/h 2.3 mph /  3.7 km/h 82 % 0 in /  0.0 mm
11:46 70.3 °F /  21.3 °C 64.6 °F /  18.1 °C 30 in /  1015.8 hPa Calm     82 % 0 in /  0.0 mm
11:51 70.5 °F /  21.4 °C 64.4 °F /  18.0 °C 30 in /  1015.8 hPa SW 3.5 mph /  5.6 km/h 3.5 mph /  5.6 km/h 81 % 0 in /  0.0 mm
11:56 70.5 °F /  21.4 °C 64.4 °F /  18.0 °C 30 in /  1015.8 hPa West 2 mph /  3.2 km/h 2 mph /  3.2 km/h 81 % 0 in /  0.0 mm
12:01 70.7 °F /  21.5 °C 64.2 °F /  17.9 °C 30 in /  1015.8 hPa SW 1.2 mph /  1.9 km/h 1.2 mph /  1.9 km/h 80 % 0 in /  0.0 mm
12:06 70.9 °F /  21.6 °C 64.4 °F /  18.0 °C 30 in /  1015.8 hPa SW 1.4 mph /  2.3 km/h 1.4 mph /  2.3 km/h 80 % 0 in /  0.0 mm
12:11 71.1 °F /  21.7 °C 64.2 °F /  17.9 °C 30 in /  1015.8 hPa South 1.6 mph /  2.6 km/h   79 % 0 in /  0.0 mm
12:16 71.1 °F /  21.7 °C 64.2 °F /  17.9 °C 30 in /  1015.8 hPa Calm     79 % 0 in /  0.0 mm
12:21 71.1 °F /  21.7 °C 63.9 °F /  17.7 °C 30 in /  1015.8 hPa Calm     78 % 0 in /  0.0 mm
12:26 71.2 °F /  21.8 °C 64 °F /  17.8 °C 30 in /  1016.8 hPa Calm     78 % 0 in /  0.0 mm
12:31 71.6 °F /  22.0 °C 64.8 °F /  18.2 °C 30 in /  1016.8 hPa SW 1.6 mph /  2.6 km/h   79 % 0 in /  0.0 mm
12:36 71.4 °F /  21.9 °C 64.9 °F /  18.3 °C 30 in /  1016.8 hPa West 1.2 mph /  1.9 km/h 1.2 mph /  1.9 km/h 80 % 0 in /  0.0 mm
12:41 71.2 °F /  21.8 °C 64.8 °F /  18.2 °C 30 in /  1016.8 hPa WNW 2.3 mph /  3.7 km/h 2.3 mph /  3.7 km/h 80 % 0 in /  0.0 mm
12:46 71.1 °F /  21.7 °C 64.6 °F /  18.1 °C 30 in /  1016.8 hPa NNE 2.4 mph /  3.9 km/h 2.4 mph /  3.9 km/h 80 % 0 in /  0.0 mm
12:51 71.1 °F /  21.7 °C 64.6 °F /  18.1 °C 30 in /  1016.8 hPa WSW 2.3 mph /  3.7 km/h 2.3 mph /  3.7 km/h 80 % 0 in /  0.0 mm
12:56 71.4 °F /  21.9 °C 64.9 °F /  18.3 °C 30 in /  1016.8 hPa ENE 1.4 mph /  2.3 km/h   80 % 0 in /  0.0 mm
13:01 71.6 °F /  22.0 °C 65.1 °F /  18.4 °C 30 in /  1016.8 hPa WNW 1.2 mph /  1.9 km/h   80 % 0 in /  0.0 mm
13:06 71.8 °F /  22.1 °C 65.3 °F /  18.5 °C 30 in /  1016.8 hPa SW 2.3 mph /  3.7 km/h   80 % 0 in /  0.0 mm
13:11 71.8 °F /  22.1 °C 64.6 °F /  18.1 °C 30 in /  1016.8 hPa SSW 2.3 mph /  3.7 km/h 2.3 mph /  3.7 km/h 78 % 0 in /  0.0 mm
13:16 71.8 °F /  22.1 °C 64.2 °F /  17.9 °C 30 in /  1016.8 hPa NNE 1.2 mph /  1.9 km/h 1.2 mph /  1.9 km/h 77 % 0 in /  0.0 mm
13:21 71.8 °F /  22.1 °C 64.2 °F /  17.9 °C 30 in /  1016.8 hPa Calm     77 % 0 in /  0.0 mm
13:26 72.1 °F /  22.3 °C 64.6 °F /  18.1 °C 30 in /  1015.8 hPa ENE 2.3 mph /  3.7 km/h 2.3 mph /  3.7 km/h 77 % 0 in /  0.0 mm
13:31 72.1 °F /  22.3 °C 64.2 °F /  17.9 °C 30 in /  1015.8 hPa ENE 2.3 mph /  3.7 km/h 2.3 mph /  3.7 km/h 76 % 0 in /  0.0 mm
13:36 72.5 °F /  22.5 °C 64.6 °F /  18.1 °C 30 in /  1015.8 hPa ENE 3.5 mph /  5.6 km/h 3.5 mph /  5.6 km/h 76 % 0 in /  0.0 mm
13:41 73 °F /  22.8 °C 64.9 °F /  18.3 °C 30 in /  1015.8 hPa ENE 3.5 mph /  5.6 km/h 3.5 mph /  5.6 km/h 76 % 0 in /  0.0 mm
13:46 73 °F /  22.8 °C 64.6 °F /  18.1 °C 30 in /  1015.8 hPa ESE 4.6 mph /  7.4 km/h 4.6 mph /  7.4 km/h 75 % 0 in /  0.0 mm
13:51 73 °F /  22.8 °C 64.6 °F /  18.1 °C 30 in /  1015.8 hPa SE 4.6 mph /  7.4 km/h 4.6 mph /  7.4 km/h 75 % 0 in /  0.0 mm
13:56 72.9 °F /  22.7 °C 64.6 °F /  18.1 °C 30 in /  1015.8 hPa ESE 5.8 mph /  9.3 km/h 5.8 mph /  9.3 km/h 75 % 0 in /  0.0 mm
14:01 72.9 °F /  22.7 °C 64.6 °F /  18.1 °C 30 in /  1015.8 hPa ESE 5.8 mph /  9.3 km/h 5.8 mph /  9.3 km/h 75 % 0 in /  0.0 mm
14:06 72.9 °F /  22.7 °C 64.8 °F /  18.2 °C 30 in /  1015.8 hPa East 6.9 mph /  11.1 km/h 6.9 mph /  11.1 km/h 76 % 0 in /  0.0 mm
14:11 72.7 °F /  22.6 °C 64.8 °F /  18.2 °C 30 in /  1016.8 hPa ESE 11.5 mph /  18.5 km/h 11.5 mph /  18.5 km/h 76 % 0 in /  0.0 mm
14:16 72.5 °F /  22.5 °C 64.9 °F /  18.3 °C 30 in /  1016.8 hPa ESE 9.2 mph /  14.8 km/h 9.2 mph /  14.8 km/h 77 % 0 in /  0.0 mm
14:21 72.5 °F /  22.5 °C 64.9 °F /  18.3 °C 30 in /  1016.8 hPa ESE 9.2 mph /  14.8 km/h 9.2 mph /  14.8 km/h 77 % 0 in /  0.0 mm
14:26 71.8 °F /  22.1 °C 64.2 °F /  17.9 °C 30.1 in /  1017.8 hPa SE 9.2 mph /  14.8 km/h 9.2 mph /  14.8 km/h 77 % 0 in /  0.0 mm
14:31 71.2 °F /  21.8 °C 63.7 °F /  17.6 °C 30.1 in /  1017.8 hPa ESE 10.4 mph /  16.7 km/h 10.4 mph /  16.7 km/h 77 % 0 in /  0.0 mm
14:36 70.5 °F /  21.4 °C 63 °F /  17.2 °C 30.1 in /  1017.8 hPa East 9.2 mph /  14.8 km/h 9.2 mph /  14.8 km/h 77 % 0 in /  0.0 mm
14:41 70.5 °F /  21.4 °C 63 °F /  17.2 °C 30.1 in /  1017.8 hPa NNE 5.8 mph /  9.3 km/h 5.8 mph /  9.3 km/h 77 % 0 in /  0.0 mm
14:46 70.2 °F /  21.2 °C 62.6 °F /  17.0 °C 30.1 in /  1017.8 hPa ESE 8.1 mph /  13.0 km/h 8.1 mph /  13.0 km/h 77 % 0 in /  0.0 mm
14:51 69.4 °F /  20.8 °C 62.6 °F /  17.0 °C 30.1 in /  1017.8 hPa East 4.6 mph /  7.4 km/h 4.6 mph /  7.4 km/h 79 % 0.04 in /  1.0 mm
14:56 68.9 °F /  20.5 °C 62.4 °F /  16.9 °C 30.1 in /  1017.8 hPa ENE 3.5 mph /  5.6 km/h 3.5 mph /  5.6 km/h 80 % 0.04 in /  1.0 mm
15:01 69.1 °F /  20.6 °C 63 °F /  17.2 °C 30.1 in /  1017.8 hPa ESE 4.6 mph /  7.4 km/h 4.6 mph /  7.4 km/h 81 % 0.04 in /  1.0 mm
15:06 69.1 °F /  20.6 °C 63 °F /  17.2 °C 30.1 in /  1017.8 hPa East 2.3 mph /  3.7 km/h 2.3 mph /  3.7 km/h 81 % 0.04 in /  1.0 mm
15:11 69.3 °F /  20.7 °C 63.1 °F /  17.3 °C 30.1 in /  1017.8 hPa North 3.5 mph /  5.6 km/h 3.5 mph /  5.6 km/h 81 % 0.09 in /  2.3 mm
15:16 69.4 °F /  20.8 °C 63.7 °F /  17.6 °C 30.1 in /  1017.8 hPa Calm     82 % 0.13 in /  3.3 mm
15:21 68.9 °F /  20.5 °C 63.1 °F /  17.3 °C 30.1 in /  1017.8 hPa NE 2.3 mph /  3.7 km/h 2.3 mph /  3.7 km/h 82 % 0.13 in /  3.3 mm
15:26 68.9 °F /  20.5 °C 63.1 °F /  17.3 °C 30 in /  1016.8 hPa NE 2.3 mph /  3.7 km/h 2.3 mph /  3.7 km/h 82 % 0.21 in /  5.3 mm
15:31 69.6 °F /  20.9 °C 64.2 °F /  17.9 °C 30 in /  1016.8 hPa ENE 5.8 mph /  9.3 km/h 5.8 mph /  9.3 km/h 83 % 0.21 in /  5.3 mm
15:33 69.8 °F /  21.0 °C 64.4 °F /  18.0 °C 30 in /  1016.8 hPa NNE 5.8 mph /  9.3 km/h 5.8 mph /  9.3 km/h 83 % 0.21 in /  5.3 mm
15:38 70 °F /  21.1 °C 64.2 °F /  17.9 °C 30 in /  1016.8 hPa ESE 8.1 mph /  13.0 km/h 8.1 mph /  13.0 km/h 82 % 0.21 in /  5.3 mm
15:43 70.5 °F /  21.4 °C 64.4 °F /  18.0 °C 30.1 in /  1017.8 hPa NNE 3.5 mph /  5.6 km/h 3.5 mph /  5.6 km/h 81 % 0.21 in /  5.3 mm
15:48 70.7 °F /  21.5 °C 64.2 °F /  17.9 °C 30.1 in /  1017.8 hPa ENE 5.8 mph /  9.3 km/h 5.8 mph /  9.3 km/h 80 % 0.17 in /  4.3 mm
15:53 71.1 °F /  21.7 °C 64.6 °F /  18.1 °C 30.1 in /  1017.8 hPa ENE 6.9 mph /  11.1 km/h 6.9 mph /  11.1 km/h 80 % 0.17 in /  4.3 mm
15:58 71.2 °F /  21.8 °C 64.8 °F /  18.2 °C 30.1 in /  1017.8 hPa ESE 5.8 mph /  9.3 km/h 5.8 mph /  9.3 km/h 80 % 0.17 in /  4.3 mm
16:03 71.6 °F /  22.0 °C 64 °F /  17.8 °C 30.1 in /  1017.8 hPa East 9.2 mph /  14.8 km/h 9.2 mph /  14.8 km/h 77 % 0.17 in /  4.3 mm
16:08 72 °F /  22.2 °C 64 °F /  17.8 °C 30.1 in /  1017.8 hPa East 11.5 mph /  18.5 km/h 11.5 mph /  18.5 km/h 76 % 0.12 in /  3.0 mm
16:13 71.8 °F /  22.1 °C 63 °F /  17.2 °C 30.1 in /  1017.8 hPa ESE 6.9 mph /  11.1 km/h 6.9 mph /  11.1 km/h 74 % 0.12 in /  3.0 mm
16:18 71.6 °F /  22.0 °C 63 °F /  17.2 °C 30.1 in /  1017.8 hPa SSW 10.4 mph /  16.7 km/h 10.4 mph /  16.7 km/h 74 % 0.08 in /  2.0 mm
16:23 71.2 °F /  21.8 °C 63 °F /  17.2 °C 30.1 in /  1017.8 hPa East 10.4 mph /  16.7 km/h 10.4 mph /  16.7 km/h 75 % 0.04 in /  1.0 mm
16:28 71.2 °F /  21.8 °C 63 °F /  17.2 °C 30 in /  1015.8 hPa NE 10.4 mph /  16.7 km/h 10.4 mph /  16.7 km/h 75 % 0 in /  0.0 mm
16:33 71.4 °F /  21.9 °C 63.1 °F /  17.3 °C 30 in /  1015.8 hPa ESE 9.2 mph /  14.8 km/h 9.2 mph /  14.8 km/h 75 % 0 in /  0.0 mm
16:38 72.1 °F /  22.3 °C 63.3 °F /  17.4 °C 30 in /  1015.8 hPa East 9.2 mph /  14.8 km/h 9.2 mph /  14.8 km/h 74 % 0 in /  0.0 mm
16:43 72.7 °F /  22.6 °C 63.9 °F /  17.7 °C 30 in /  1015.8 hPa ESE 6.9 mph /  11.1 km/h 6.9 mph /  11.1 km/h 74 % 0 in /  0.0 mm
16:48 72.9 °F /  22.7 °C 63.7 °F /  17.6 °C 30 in /  1015.8 hPa ESE 9.2 mph /  14.8 km/h 9.2 mph /  14.8 km/h 73 % 0 in /  0.0 mm
16:53 72.5 °F /  22.5 °C 63.3 °F /  17.4 °C 30 in /  1015.8 hPa East 9.2 mph /  14.8 km/h 9.2 mph /  14.8 km/h 73 % 0 in /  0.0 mm
16:58 72.1 °F /  22.3 °C 63 °F /  17.2 °C 30 in /  1015.8 hPa ESE 9.2 mph /  14.8 km/h 9.2 mph /  14.8 km/h 73 % 0 in /  0.0 mm
17:03 72.1 °F /  22.3 °C 63 °F /  17.2 °C 30 in /  1015.8 hPa ESE 5.8 mph /  9.3 km/h 5.9 mph /  9.5 km/h 73 % 0 in /  0.0 mm
17:08 72.1 °F /  22.3 °C 63 °F /  17.2 °C 30 in /  1015.8 hPa ESE 9.2 mph /  14.8 km/h 9.2 mph /  14.8 km/h 73 % 0 in /  0.0 mm
17:13 72 °F /  22.2 °C 62.8 °F /  17.1 °C 30 in /  1015.8 hPa ESE 8.1 mph /  13.0 km/h 8.1 mph /  13.0 km/h 73 % 0 in /  0.0 mm
17:18 72.1 °F /  22.3 °C 63.3 °F /  17.4 °C 30 in /  1015.8 hPa SE 10.4 mph /  16.7 km/h 10.4 mph /  16.7 km/h 74 % 0 in /  0.0 mm
17:23 71.8 °F /  22.1 °C 63 °F /  17.2 °C 30 in /  1016.8 hPa SE 10.4 mph /  16.7 km/h 10.4 mph /  16.7 km/h 74 % 0 in /  0.0 mm
17:33 71.1 °F /  21.7 °C 62.8 °F /  17.1 °C 30 in /  1016.8 hPa ESE 10.4 mph /  16.7 km/h 10.4 mph /  16.7 km/h 75 % 0 in /  0.0 mm
17:38 70.7 °F /  21.5 °C 62.8 °F /  17.1 °C 30.1 in /  1017.8 hPa ESE 11.5 mph /  18.5 km/h 11.5 mph /  18.5 km/h 76 % 0 in /  0.0 mm
17:43 70.5 °F /  21.4 °C 62.6 °F /  17.0 °C 30.1 in /  1017.8 hPa SE 8.1 mph /  13.0 km/h 8.1 mph /  13.0 km/h 76 % 0 in /  0.0 mm
17:48 70.3 °F /  21.3 °C 62.4 °F /  16.9 °C 30.1 in /  1017.8 hPa East 7.1 mph /  11.4 km/h 7.1 mph /  11.4 km/h 76 % 0 in /  0.0 mm
17:53 70 °F /  21.1 °C 62.1 °F /  16.7 °C 30 in /  1016.8 hPa SE 8.5 mph /  13.7 km/h 8.5 mph /  13.7 km/h 76 % 0 in /  0.0 mm
17:58 69.8 °F /  21.0 °C 62.2 °F /  16.8 °C 30 in /  1016.8 hPa ENE 8.1 mph /  13.0 km/h 8.1 mph /  13.0 km/h 77 % 0 in /  0.0 mm
18:03 69.6 °F /  20.9 °C 62.4 °F /  16.9 °C 30 in /  1016.8 hPa East 12.7 mph /  20.4 km/h 12.7 mph /  20.4 km/h 78 % 0 in /  0.0 mm
18:08 69.6 °F /  20.9 °C 62.4 °F /  16.9 °C 30 in /  1016.8 hPa ESE 10.4 mph /  16.7 km/h 10.4 mph /  16.7 km/h 78 % 0 in /  0.0 mm
18:13 69.4 °F /  20.8 °C 62.2 °F /  16.8 °C 30 in /  1016.8 hPa East 9.2 mph /  14.8 km/h 9.2 mph /  14.8 km/h 78 % 0 in /  0.0 mm
18:18 69.6 °F /  20.9 °C 62.4 °F /  16.9 °C 30 in /  1016.8 hPa ESE 10.7 mph /  17.2 km/h 10.7 mph /  17.2 km/h 78 % 0 in /  0.0 mm
18:23 69.6 °F /  20.9 °C 62.4 °F /  16.9 °C 30.1 in /  1017.8 hPa East 5.8 mph /  9.3 km/h 5.8 mph /  9.3 km/h 78 % 0 in /  0.0 mm
18:28 69.6 °F /  20.9 °C 62.4 °F /  16.9 °C 30.1 in /  1017.8 hPa East 6.9 mph /  11.1 km/h 6.9 mph /  11.1 km/h 78 % 0 in /  0.0 mm
18:33 69.4 °F /  20.8 °C 62.2 °F /  16.8 °C 30.1 in /  1017.8 hPa ESE 5.8 mph /  9.3 km/h 5.8 mph /  9.3 km/h 78 % 0 in /  0.0 mm
18:38 69.4 °F /  20.8 °C 62.2 °F /  16.8 °C 30.1 in /  1017.8 hPa East 8.1 mph /  13.0 km/h 8.1 mph /  13.0 km/h 78 % 0 in /  0.0 mm
18:43 69.4 °F /  20.8 °C 62.2 °F /  16.8 °C 30.1 in /  1017.8 hPa ENE 6.9 mph /  11.1 km/h 6.9 mph /  11.1 km/h 78 % 0 in /  0.0 mm
18:48 69.4 °F /  20.8 °C 62.2 °F /  16.8 °C 30.1 in /  1017.8 hPa SE 5.8 mph /  9.3 km/h 5.8 mph /  9.3 km/h 78 % 0 in /  0.0 mm
18:53 69.4 °F /  20.8 °C 62.2 °F /  16.8 °C 30.1 in /  1017.8 hPa ESE 5.8 mph /  9.3 km/h 5.8 mph /  9.3 km/h 78 % 0 in /  0.0 mm
18:58 69.4 °F /  20.8 °C 62.2 °F /  16.8 °C 30.1 in /  1017.8 hPa SE 7.4 mph /  11.9 km/h 7.4 mph /  11.9 km/h 78 % 0 in /  0.0 mm
19:03 69.3 °F /  20.7 °C 62.1 °F /  16.7 °C 30.1 in /  1017.8 hPa East 6.9 mph /  11.1 km/h 6.9 mph /  11.1 km/h 78 % 0 in /  0.0 mm
19:08 69.1 °F /  20.6 °C 61.9 °F /  16.6 °C 30.1 in /  1017.8 hPa East 8.1 mph /  13.0 km/h 8.1 mph /  13.0 km/h 78 % 0 in /  0.0 mm
19:13 69.3 °F /  20.7 °C 62.1 °F /  16.7 °C 30.1 in /  1017.8 hPa East 6.9 mph /  11.1 km/h 6.9 mph /  11.1 km/h 78 % 0 in /  0.0 mm
19:18 69.1 °F /  20.6 °C 61.9 °F /  16.6 °C 30.1 in /  1017.8 hPa NE 9.2 mph /  14.8 km/h 9.2 mph /  14.8 km/h 78 % 0 in /  0.0 mm
19:23 69.1 °F /  20.6 °C 62.2 °F /  16.8 °C 30.1 in /  1017.8 hPa East 7.8 mph /  12.6 km/h 7.8 mph /  12.6 km/h 79 % 0 in /  0.0 mm
19:28 68.9 °F /  20.5 °C 62.1 °F /  16.7 °C 30.1 in /  1017.8 hPa SE 7.1 mph /  11.4 km/h 7.1 mph /  11.4 km/h 79 % 0 in /  0.0 mm
19:33 68.9 °F /  20.5 °C 62.1 °F /  16.7 °C 30.1 in /  1017.8 hPa NE 6 mph /  9.7 km/h 6 mph /  9.7 km/h 79 % 0 in /  0.0 mm
19:38 68.9 °F /  20.5 °C 61.9 °F /  16.6 °C 30.1 in /  1017.8 hPa NNE 7.8 mph /  12.6 km/h 7.8 mph /  12.6 km/h 78 % 0 in /  0.0 mm
19:43 68.7 °F /  20.4 °C 61.5 °F /  16.4 °C 30.1 in /  1017.8 hPa ENE 8.1 mph /  13.0 km/h 8.1 mph /  13.0 km/h 78 % 0 in /  0.0 mm
19:48 68.7 °F /  20.4 °C 61.5 °F /  16.4 °C 30.1 in /  1017.8 hPa SE 6.9 mph /  11.1 km/h 6.9 mph /  11.1 km/h 78 % 0 in /  0.0 mm
19:53 68.7 °F /  20.4 °C 61.5 °F /  16.4 °C 30.1 in /  1017.8 hPa ENE 8.1 mph /  13.0 km/h 8.1 mph /  13.0 km/h 78 % 0 in /  0.0 mm
19:58 68.5 °F /  20.3 °C 61.3 °F /  16.3 °C 30.1 in /  1017.8 hPa ESE 8.1 mph /  13.0 km/h 8.1 mph /  13.0 km/h 78 % 0 in /  0.0 mm
20:03 68.5 °F /  20.3 °C 61.3 °F /  16.3 °C 30.1 in /  1017.8 hPa ESE 6.9 mph /  11.1 km/h 6.9 mph /  11.1 km/h 78 % 0 in /  0.0 mm
20:08 68.5 °F /  20.3 °C 61.3 °F /  16.3 °C 30.1 in /  1017.8 hPa East 5.8 mph /  9.3 km/h 5.8 mph /  9.3 km/h 78 % 0 in /  0.0 mm
20:13 68.5 °F /  20.3 °C 61.3 °F /  16.3 °C 30.1 in /  1017.8 hPa NE 5.8 mph /  9.3 km/h 5.8 mph /  9.3 km/h 78 % 0 in /  0.0 mm
20:18 68.4 °F /  20.2 °C 61.2 °F /  16.2 °C 30.1 in /  1017.8 hPa ESE 5.4 mph /  8.7 km/h 5.4 mph /  8.7 km/h 78 % 0 in /  0.0 mm
20:20 66.9 °F /  19.4 °C 60.3 °F /  15.7 °C 30.1 in /  1017.8 hPa North 1 mph /  1.6 km/h 1 mph /  1.6 km/h 79 % 0 in /  0.0 mm
20:23 68.4 °F /  20.2 °C 61.2 °F /  16.2 °C 30.1 in /  1017.8 hPa East 4.3 mph /  6.9 km/h 4.3 mph /  6.9 km/h 78 % 0 in /  0.0 mm
20:28 68.4 °F /  20.2 °C 61.2 °F /  16.2 °C 30.1 in /  1017.8 hPa ESE 4.6 mph /  7.4 km/h 4.6 mph /  7.4 km/h 78 % 0 in /  0.0 mm
20:29 68.4 °F /  20.2 °C 61.2 °F /  16.2 °C 30.1 in /  1017.8 hPa SE 3.5 mph /  5.6 km/h 3.5 mph /  5.6 km/h 78 % 0 in /  0.0 mm
20:30 66.6 °F /  19.2 °C 60.3 °F /  15.7 °C 30.1 in /  1017.8 hPa Calm   2 mph /  3.2 km/h 80 % 0 in /  0.0 mm
20:34 68.4 °F /  20.2 °C 61.2 °F /  16.2 °C 30.1 in /  1017.8 hPa SE 5.9 mph /  9.5 km/h 5.9 mph /  9.5 km/h 78 % 0 in /  0.0 mm
20:39 68.4 °F /  20.2 °C 61.2 °F /  16.2 °C 30.1 in /  1017.8 hPa ENE 4.6 mph /  7.4 km/h 4.6 mph /  7.4 km/h 78 % 0 in /  0.0 mm
20:40 66.2 °F /  19.0 °C 59.7 °F /  15.4 °C 30.1 in /  1017.8 hPa Calm     80 % 0 in /  0.0 mm
20:44 68.4 °F /  20.2 °C 61.2 °F /  16.2 °C 30.1 in /  1017.8 hPa SSE 4.9 mph /  7.9 km/h 4.9 mph /  7.9 km/h 78 % 0 in /  0.0 mm
20:49 68.4 °F /  20.2 °C 61.2 °F /  16.2 °C 30.1 in /  1017.8 hPa ESE 4.6 mph /  7.4 km/h 4.6 mph /  7.4 km/h 78 % 0 in /  0.0 mm
20:50 66 °F /  18.9 °C 60.4 °F /  15.8 °C 30.1 in /  1017.8 hPa Calm     82 % 0 in /  0.0 mm
20:54 68.4 °F /  20.2 °C 61 °F /  16.1 °C 30.1 in /  1017.8 hPa ESE 4.6 mph /  7.4 km/h 4.6 mph /  7.4 km/h 77 % 0 in /  0.0 mm
20:59 68.4 °F /  20.2 °C 61 °F /  16.1 °C 30.1 in /  1017.8 hPa East 8.1 mph /  13.0 km/h 8.1 mph /  13.0 km/h 77 % 0 in /  0.0 mm
21:00 65.7 °F /  18.7 °C 60.1 °F /  15.6 °C 30.1 in /  1017.8 hPa Calm     82 % 0 in /  0.0 mm
21:04 68.4 °F /  20.2 °C 61 °F /  16.1 °C 30.1 in /  1017.8 hPa SE 8.1 mph /  13.0 km/h 8.1 mph /  13.0 km/h 77 % 0 in /  0.0 mm
21:09 68.5 °F /  20.3 °C 61 °F /  16.1 °C 30.1 in /  1017.8 hPa ENE 5.8 mph /  9.3 km/h 5.8 mph /  9.3 km/h 77 % 0 in /  0.0 mm
21:10 65.5 °F /  18.6 °C 59.7 °F /  15.4 °C 30.1 in /  1017.8 hPa Calm     82 % 0 in /  0.0 mm
21:14 68.5 °F /  20.3 °C 61 °F /  16.1 °C 30.1 in /  1017.8 hPa ESE 4.6 mph /  7.4 km/h 4.6 mph /  7.4 km/h 77 % 0 in /  0.0 mm
21:19 68.5 °F /  20.3 °C 61 °F /  16.1 °C 30.1 in /  1017.8 hPa East 3.5 mph /  5.6 km/h 3.5 mph /  5.6 km/h 77 % 0 in /  0.0 mm
21:20 65.3 °F /  18.5 °C 60.1 °F /  15.6 °C 30.1 in /  1017.8 hPa Calm     83 % 0 in /  0.0 mm
21:24 68.5 °F /  20.3 °C 61 °F /  16.1 °C 30.1 in /  1017.8 hPa East 4.9 mph /  7.9 km/h 4.9 mph /  7.9 km/h 77 % 0 in /  0.0 mm
21:29 68.5 °F /  20.3 °C 61 °F /  16.1 °C 30.1 in /  1017.8 hPa NE 4.6 mph /  7.4 km/h 4.6 mph /  7.4 km/h 77 % 0 in /  0.0 mm
21:30 65.1 °F /  18.4 °C 59.7 °F /  15.4 °C 30.1 in /  1017.8 hPa Calm     83 % 0 in /  0.0 mm
21:34 68.4 °F /  20.2 °C 61 °F /  16.1 °C 30.1 in /  1017.8 hPa East 2.3 mph /  3.7 km/h 2.3 mph /  3.7 km/h 77 % 0 in /  0.0 mm
21:39 68.4 °F /  20.2 °C 61 °F /  16.1 °C 30.1 in /  1017.8 hPa NNE 1.4 mph /  2.3 km/h 1.4 mph /  2.3 km/h 77 % 0 in /  0.0 mm
21:40 64.8 °F /  18.2 °C 59.5 °F /  15.3 °C 30.1 in /  1017.8 hPa NNE 1 mph /  1.6 km/h 2 mph /  3.2 km/h 83 % 0 in /  0.0 mm
21:44 68.4 °F /  20.2 °C 61 °F /  16.1 °C 30.1 in /  1017.8 hPa NE 2.3 mph /  3.7 km/h 2.3 mph /  3.7 km/h 77 % 0 in /  0.0 mm
21:45 68.4 °F /  20.2 °C 61 °F /  16.1 °C 30.1 in /  1017.8 hPa NE 2.3 mph /  3.7 km/h 2.3 mph /  3.7 km/h 77 % 0 in /  0.0 mm
21:50 68.4 °F /  20.2 °C 61 °F /  16.1 °C 30.1 in /  1017.8 hPa Calm     77 % 0 in /  0.0 mm
21:55 68.4 °F /  20.2 °C 60.4 °F /  15.8 °C 30.1 in /  1017.8 hPa ENE 1.2 mph /  1.9 km/h 1.4 mph /  2.3 km/h 76 % 0 in /  0.0 mm
22:00 68.4 °F /  20.2 °C 60.4 °F /  15.8 °C 30.1 in /  1017.8 hPa NE 2.3 mph /  3.7 km/h 2.3 mph /  3.7 km/h 76 % 0 in /  0.0 mm
22:05 68.4 °F /  20.2 °C 60.4 °F /  15.8 °C 30.1 in /  1017.8 hPa East 2.3 mph /  3.7 km/h 2.3 mph /  3.7 km/h 76 % 0 in /  0.0 mm
22:10 68.4 °F /  20.2 °C 61 °F /  16.1 °C 30.1 in /  1017.8 hPa NE 3.5 mph /  5.6 km/h 3.5 mph /  5.6 km/h 77 % 0 in /  0.0 mm
22:15 68.4 °F /  20.2 °C 61 °F /  16.1 °C 30.1 in /  1017.8 hPa NNE 3.5 mph /  5.6 km/h 3.5 mph /  5.6 km/h 77 % 0 in /  0.0 mm
22:20 68.2 °F /  20.1 °C 60.3 °F /  15.7 °C 30.1 in /  1017.8 hPa NE 2.3 mph /  3.7 km/h 2.3 mph /  3.7 km/h 76 % 0 in /  0.0 mm
22:25 68.4 °F /  20.2 °C 60.4 °F /  15.8 °C 30.1 in /  1018.8 hPa NE 1.2 mph /  1.9 km/h 1.2 mph /  1.9 km/h 76 % 0 in /  0.0 mm
22:30 68.4 °F /  20.2 °C 60.4 °F /  15.8 °C 30.1 in /  1018.8 hPa NNE 2.3 mph /  3.7 km/h 2.3 mph /  3.7 km/h 76 % 0 in /  0.0 mm
22:35 68.4 °F /  20.2 °C 60.4 °F /  15.8 °C 30.1 in /  1018.8 hPa East 1.6 mph /  2.6 km/h 1.6 mph /  2.6 km/h 76 % 0 in /  0.0 mm
22:40 68.4 °F /  20.2 °C 60.4 °F /  15.8 °C 30.1 in /  1018.8 hPa East 2.3 mph /  3.7 km/h 2.3 mph /  3.7 km/h 76 % 0 in /  0.0 mm
22:45 68.4 °F /  20.2 °C 60.4 °F /  15.8 °C 30.1 in /  1018.8 hPa ESE 1.2 mph /  1.9 km/h 1.2 mph /  1.9 km/h 76 % 0 in /  0.0 mm
22:50 68.4 °F /  20.2 °C 61 °F /  16.1 °C 30.1 in /  1018.8 hPa WSW 1.2 mph /  1.9 km/h 1.2 mph /  1.9 km/h 77 % 0 in /  0.0 mm
22:55 68.2 °F /  20.1 °C 60.6 °F /  15.9 °C 30.1 in /  1018.8 hPa WSW 1.6 mph /  2.6 km/h 1.6 mph /  2.6 km/h 77 % 0 in /  0.0 mm
23:00 68.2 °F /  20.1 °C 60.6 °F /  15.9 °C 30.1 in /  1018.8 hPa WSW 1.4 mph /  2.3 km/h 1.4 mph /  2.3 km/h 77 % 0 in /  0.0 mm
23:05 68 °F /  20.0 °C 60.4 °F /  15.8 °C 30.1 in /  1018.8 hPa Calm     77 % 0 in /  0.0 mm
23:10 68 °F /  20.0 °C 61 °F /  16.1 °C 30.1 in /  1017.8 hPa Calm     78 % 0 in /  0.0 mm
23:15 68 °F /  20.0 °C 61 °F /  16.1 °C 30.1 in /  1017.8 hPa Calm     78 % 0 in /  0.0 mm
23:20 68 °F /  20.0 °C 61 °F /  16.1 °C 30.1 in /  1017.8 hPa NNE 2.3 mph /  3.7 km/h 2.3 mph /  3.7 km/h 78 % 0 in /  0.0 mm
23:25 67.8 °F /  19.9 °C 60.6 °F /  15.9 °C 30.1 in /  1017.8 hPa NNE 1.2 mph /  1.9 km/h 1.2 mph /  1.9 km/h 78 % 0 in /  0.0 mm
23:30 67.8 °F /  19.9 °C 60.6 °F /  15.9 °C 30.1 in /  1017.8 hPa North 1.2 mph /  1.9 km/h   78 % 0 in /  0.0 mm
23:35 67.6 °F /  19.8 °C 60.4 °F /  15.8 °C 30.1 in /  1017.8 hPa NNE 1.2 mph /  1.9 km/h   78 % 0 in /  0.0 mm
23:40 67.6 °F /  19.8 °C 60.4 °F /  15.8 °C 30.1 in /  1017.8 hPa NNE 2.3 mph /  3.7 km/h 2.3 mph /  3.7 km/h 78 % 0 in /  0.0 mm
23:45 67.6 °F /  19.8 °C 60.4 °F /  15.8 °C 30.1 in /  1017.8 hPa NNE 1.4 mph /  2.3 km/h 1.4 mph /  2.3 km/h 78 % 0 in /  0.0 mm
23:50 67.6 °F /  19.8 °C 60.4 °F /  15.8 °C 30.1 in /  1017.8 hPa Calm     78 % 0 in /  0.0 mm
23:55 67.5 °F /  19.7 °C 60.4 °F /  15.8 °C 30.1 in /  1017.8 hPa NNE 1.2 mph /  1.9 km/h   78 % 0 in /  0.0 mm
Meteo Sesrovires
Elogis d' Weather Underground - 3.75 mb

Guio original per  Jim McMurry - jmcmurry@mwt.net Adaptat per a la plantilla per  Wim van der Kuil - Leuven-Template.eu

Trobareu la nostra informacio del temps tambe a:

Weather Underground

AWEKAS